createdAt,value
2024-03-26T00:06:54.124Z,0
2024-03-26T00:16:56.272Z,0
2024-03-26T00:26:58.705Z,0
2024-03-26T00:37:01.036Z,0
2024-03-26T00:47:03.657Z,0
2024-03-26T00:57:06.275Z,0
2024-03-26T01:07:08.311Z,0
2024-03-26T01:17:10.343Z,0
2024-03-26T01:27:12.347Z,0
2024-03-26T01:37:13.860Z,0
2024-03-26T01:47:16.134Z,0
2024-03-26T01:57:18.180Z,0
2024-03-26T02:07:20.544Z,0
2024-03-26T02:17:22.410Z,0
2024-03-26T02:27:24.951Z,0
2024-03-26T02:37:26.876Z,0
2024-03-26T02:47:29.300Z,0
2024-03-26T02:57:31.509Z,0
2024-03-26T03:07:33.613Z,0
2024-03-26T03:17:35.993Z,0
2024-03-26T03:27:38.376Z,0
2024-03-26T03:37:40.289Z,0
2024-03-26T03:47:42.116Z,0
2024-03-26T03:57:44.345Z,0
2024-03-26T04:07:54.339Z,0
2024-03-26T04:17:56.998Z,0
2024-03-26T04:27:59.004Z,0
2024-03-26T04:38:01.117Z,0.83
2024-03-26T04:48:03.748Z,8.33
2024-03-26T04:58:05.868Z,38.33
2024-03-26T05:08:08.304Z,113.33
2024-03-26T05:18:10.540Z,216.67
2024-03-26T05:28:12.529Z,397.5
2024-03-26T05:38:15.147Z,667.5
2024-03-26T05:48:17.788Z,964.17
2024-03-26T05:58:19.838Z,1200
2024-03-26T06:08:22.034Z,1183.33
2024-03-26T06:18:28.382Z,1075.83
2024-03-26T06:28:30.778Z,1161.67
2024-03-26T06:38:32.479Z,1350.83
2024-03-26T06:48:34.190Z,1714.17
2024-03-26T06:58:36.917Z,2359.17
2024-03-26T07:08:39.368Z,2727.5
2024-03-26T07:18:52.336Z,3030
2024-03-26T07:28:55.070Z,3236.67
2024-03-26T07:38:57.870Z,3454.17
2024-03-26T07:49:00.464Z,3883.33
2024-03-26T07:59:02.893Z,4075.83
2024-03-26T08:09:04.978Z,3904.17
2024-03-26T08:19:07.346Z,4377.5
2024-03-26T08:29:09.935Z,4916.67
2024-03-26T08:39:12.450Z,5624.17
2024-03-26T08:49:15.116Z,6171.67
2024-03-26T08:59:17.309Z,6400.83
2024-03-26T09:09:19.867Z,5901.67
2024-03-26T09:19:22.123Z,6470
2024-03-26T09:29:24.806Z,7305
2024-03-26T09:39:26.616Z,8255.83
2024-03-26T09:49:28.955Z,8642.5
2024-03-26T09:59:31.623Z,8760.83
2024-03-26T10:09:34.270Z,14941.67
2024-03-26T10:19:37.288Z,11011.67
2024-03-26T10:29:47.351Z,13114.17
2024-03-26T10:39:50.230Z,30362.5
2024-03-26T10:49:52.723Z,9155
2024-03-26T10:59:55.112Z,10145
2024-03-26T11:09:57.773Z,15761.67
2024-03-26T11:20:00.810Z,15631.67
2024-03-26T11:30:03.770Z,12898.33
2024-03-26T11:40:06.233Z,21074.17
2024-03-26T11:50:09.231Z,13592.5
2024-03-26T12:00:11.313Z,11412.5
2024-03-26T12:10:22.974Z,7094.17
2024-03-26T12:20:24.591Z,10028.33
2024-03-26T12:30:27.656Z,9983.33
2024-03-26T12:40:29.660Z,7837.5
2024-03-26T12:50:32.156Z,8953.33
2024-03-26T13:00:34.466Z,4997.5
2024-03-26T13:10:36.642Z,3962.5
2024-03-26T13:20:38.995Z,4434.17
2024-03-26T13:30:46.368Z,3846.67
2024-03-26T13:41:00.900Z,5479.17
2024-03-26T13:51:03.354Z,6350
2024-03-26T14:01:06.445Z,4412.5
2024-03-26T14:11:08.823Z,4752.5
2024-03-26T14:21:11.392Z,6175
2024-03-26T14:31:14.370Z,4445
2024-03-26T14:41:16.972Z,6620
2024-03-26T14:51:19.589Z,8142.5
2024-03-26T15:01:22.377Z,5367.5
2024-03-26T15:11:24.904Z,4172.5
2024-03-26T15:21:27.329Z,5016.67
2024-03-26T15:31:29.927Z,6718.33
2024-03-26T15:41:32.632Z,5091.67
2024-03-26T15:51:34.831Z,2728.33
2024-03-26T16:01:36.677Z,1861.67
2024-03-26T16:11:38.552Z,1470.83
2024-03-26T16:21:40.471Z,1262.5
2024-03-26T16:31:43.119Z,1033.33
2024-03-26T16:41:44.746Z,770
2024-03-26T16:51:47.046Z,670.83
2024-03-26T17:01:49.351Z,607.5
2024-03-26T17:11:51.498Z,580.83
2024-03-26T17:21:53.794Z,336.67
2024-03-26T17:31:56.237Z,140.83
2024-03-26T17:41:58.910Z,67.5
2024-03-26T17:52:01.710Z,26.67
2024-03-26T18:02:03.880Z,5.83
2024-03-26T18:12:06.329Z,0.83
2024-03-26T18:22:07.989Z,0
2024-03-26T18:32:10.225Z,0
2024-03-26T18:42:12.402Z,0
2024-03-26T18:52:14.737Z,0
2024-03-26T19:02:17.031Z,0
2024-03-26T19:12:24.016Z,0
2024-03-26T19:22:26.206Z,0
2024-03-26T19:32:28.668Z,0
2024-03-26T19:42:30.559Z,0
2024-03-26T19:52:32.733Z,0
2024-03-26T20:02:35.122Z,0
2024-03-26T20:12:37.469Z,0
2024-03-26T20:22:39.799Z,0
2024-03-26T20:32:42.342Z,0
2024-03-26T20:42:44.765Z,0
2024-03-26T20:52:46.551Z,0
2024-03-26T21:02:48.573Z,0
2024-03-26T21:12:50.857Z,0
2024-03-26T21:22:52.991Z,0
2024-03-26T21:32:55.148Z,0
2024-03-26T21:42:57.604Z,0
2024-03-26T21:53:00.375Z,0
2024-03-26T22:03:02.635Z,0
2024-03-26T22:13:04.460Z,0
2024-03-26T22:23:07.022Z,0
2024-03-26T22:33:09.453Z,0
2024-03-26T22:43:11.909Z,0
2024-03-26T22:53:13.605Z,0
2024-03-26T23:03:15.624Z,0
2024-03-26T23:13:18.060Z,0
2024-03-26T23:23:20.134Z,0
2024-03-26T23:33:22.216Z,0
2024-03-26T23:43:24.598Z,0
2024-03-26T23:53:26.818Z,0
